Weather at Bradford Airport

Public forecast

Using degrees Celsius for public forecast. Weather courtesy of forecast.io.

Closest aviation weather report (METAR) to Bradford Airport

Closest report is CFB Borden, 14.7 nm (27.2 km) NW. Retrieved 2020/12/03 13:06 UTC (20 minutes ago):

CYBN 031306Z AUTO 21007KT 9SM OVC023 00/M02 A2994

Closest aviation forecast (TAF) to Bradford Airport

Closest forecast is CFB Borden, 14.7 nm (27.2 km) NW. Retrieved 2020/12/03 12:33 UTC (53 minutes ago):

TAF TAF CYBN 031130Z 0312/0324 24008KT P6SM OVC025 TEMPO 0312/0321 OVC020 BECMG 0313/0315 24012G22KT FM032100 23010KT P6SM OVC025 TEMPO 0321/0324 P6SM -RASN OVC020 RMK FCST BASED ON AUTO OBS NXT FCST BY 031800Z